createdAt,value
2018-11-28T00:00:15.245Z,51.28
2018-11-28T00:02:44.164Z,49.83
2018-11-28T00:05:13.251Z,53.17
2018-11-28T00:07:57.063Z,52.93
2018-11-28T00:10:25.964Z,47.95
2018-11-28T00:12:54.879Z,52.38
2018-11-28T00:15:23.784Z,47.38
2018-11-28T00:17:52.742Z,49.65
2018-11-28T00:20:22.567Z,48.40
2018-11-28T00:22:51.516Z,52.93
2018-11-28T00:25:20.610Z,50.23
2018-11-28T00:27:49.540Z,50.23
2018-11-28T00:30:21.989Z,52.10
2018-11-28T00:32:50.930Z,51.42
2018-11-28T00:35:22.792Z,50.05
2018-11-28T00:37:51.714Z,49.25
2018-11-28T00:40:21.847Z,50.75
2018-11-28T00:42:50.973Z,50.12
2018-11-28T00:45:21.668Z,50.10
2018-11-28T00:47:50.599Z,55.28
2018-11-28T00:50:20.624Z,50.33
2018-11-28T00:52:49.556Z,55.67
2018-11-28T00:55:18.771Z,55.92
2018-11-28T00:57:47.704Z,55.05
2018-11-28T01:00:27.937Z,55.03
2018-11-28T01:02:56.839Z,53.40
2018-11-28T01:05:25.788Z,55.70
2018-11-28T01:07:55.496Z,57.60
2018-11-28T01:10:25.239Z,54.38
2018-11-28T01:12:54.493Z,52.83
2018-11-28T01:15:23.435Z,56.77
2018-11-28T01:17:52.355Z,54.20
2018-11-28T01:20:22.419Z,59.27
2018-11-28T01:22:51.327Z,58.23
2018-11-28T01:25:20.870Z,55.60
2018-11-28T01:27:50.227Z,60.25
2018-11-28T01:30:21.270Z,58.98
2018-11-28T01:32:50.251Z,57.08
2018-11-28T01:35:19.955Z,59.18
2018-11-28T01:37:48.872Z,60.70
2018-11-28T01:40:20.480Z,61.02
2018-11-28T01:42:49.431Z,58.70
2018-11-28T01:45:19.411Z,60.35
2018-11-28T01:47:48.326Z,57.50
2018-11-28T01:50:18.143Z,55.20
2018-11-28T01:52:47.058Z,58.35
2018-11-28T01:55:20.375Z,51.50
2018-11-28T01:57:49.304Z,57.38
2018-11-28T02:00:22.304Z,53.15
2018-11-28T02:02:58.619Z,55.78
2018-11-28T02:05:27.531Z,56.95
2018-11-28T02:07:56.430Z,58.83
2018-11-28T02:10:25.341Z,58.40
2018-11-28T02:12:55.236Z,56.90
2018-11-28T02:15:28.512Z,62.38
2018-11-28T02:17:58.104Z,58.60
2018-11-28T02:20:27.020Z,60.28
2018-11-28T02:22:55.911Z,58.73
2018-11-28T02:25:24.844Z,60.10
2018-11-28T02:27:53.732Z,61.70
2018-11-28T02:30:22.672Z,58.28
2018-11-28T02:32:51.569Z,65.10
2018-11-28T02:35:20.496Z,64.00
2018-11-28T02:37:49.745Z,62.70
2018-11-28T02:40:19.385Z,56.90
2018-11-28T02:42:49.420Z,65.67
2018-11-28T02:45:20.947Z,58.68
2018-11-28T02:47:50.320Z,62.08
2018-11-28T02:50:19.254Z,63.13
2018-11-28T02:52:48.147Z,61.53
2018-11-28T02:55:17.831Z,66.50
2018-11-28T02:57:47.814Z,65.28
2018-11-28T03:00:26.467Z,64.30
2018-11-28T03:02:55.369Z,65.57
2018-11-28T03:05:24.291Z,62.78
2018-11-28T03:07:53.184Z,63.13
2018-11-28T03:10:22.987Z,65.50
2018-11-28T03:12:51.897Z,66.80
2018-11-28T03:15:28.280Z,70.20
2018-11-28T03:17:57.177Z,68.80
2018-11-28T03:20:26.110Z,63.28
2018-11-28T03:22:55.032Z,59.90
2018-11-28T03:25:23.932Z,63.02
2018-11-28T03:27:52.828Z,68.40
2018-11-28T03:30:21.800Z,64.45
2018-11-28T03:32:50.692Z,67.92
2018-11-28T03:35:19.607Z,64.90
2018-11-28T03:37:48.535Z,66.75
2018-11-28T03:40:17.456Z,66.40
2018-11-28T03:42:46.340Z,69.97
2018-11-28T03:45:16.646Z,64.40
2018-11-28T03:47:45.942Z,65.55
2018-11-28T03:50:15.611Z,65.90
2018-11-28T03:52:44.511Z,67.45
2018-11-28T03:55:14.730Z,65.65
2018-11-28T03:57:44.717Z,67.15
2018-11-28T04:00:16.619Z,67.70
2018-11-28T04:02:45.527Z,65.25
2018-11-28T04:05:14.480Z,69.40
2018-11-28T04:07:43.343Z,68.67
2018-11-28T04:10:13.996Z,71.55
2018-11-28T04:12:43.584Z,67.17
2018-11-28T04:15:20.478Z,69.85
2018-11-28T04:17:49.379Z,62.40
2018-11-28T04:20:23.102Z,64.25
2018-11-28T04:22:52.214Z,63.15
2018-11-28T04:25:22.688Z,67.23
2018-11-28T04:27:51.967Z,66.90
2018-11-28T04:30:21.908Z,64.40
2018-11-28T04:32:51.503Z,71.95
2018-11-28T04:35:20.409Z,65.60
2018-11-28T04:37:49.345Z,63.33
2018-11-28T04:40:20.037Z,63.00
2018-11-28T04:42:50.232Z,67.15
2018-11-28T04:45:20.067Z,64.32
2018-11-28T04:47:49.109Z,65.95
2018-11-28T04:50:18.030Z,63.63
2018-11-28T04:52:46.938Z,63.40
2018-11-28T04:55:16.882Z,60.78
2018-11-28T04:57:45.873Z,62.97
2018-11-28T05:00:25.869Z,57.60
2018-11-28T05:02:56.001Z,61.98
2018-11-28T05:05:24.968Z,61.98
2018-11-28T05:07:54.259Z,64.20
2018-11-28T05:10:29.178Z,61.70
2018-11-28T05:12:59.030Z,66.90
2018-11-28T05:15:28.990Z,70.40
2018-11-28T05:17:57.919Z,64.30
2018-11-28T05:20:28.760Z,66.42
2018-11-28T05:22:57.706Z,66.27
2018-11-28T05:25:28.224Z,66.07
2018-11-28T05:27:58.700Z,68.35
2018-11-28T05:30:28.640Z,63.30
2018-11-28T05:32:57.566Z,67.17
2018-11-28T05:35:34.449Z,64.92
2018-11-28T05:38:05.660Z,63.73
2018-11-28T05:40:34.591Z,65.03
2018-11-28T05:43:03.543Z,72.17
2018-11-28T05:45:32.468Z,64.33
2018-11-28T05:48:01.406Z,62.90
2018-11-28T05:50:30.352Z,65.47
2018-11-28T05:52:59.301Z,60.43
2018-11-28T05:55:28.223Z,64.03
2018-11-28T05:57:57.621Z,60.00
2018-11-28T06:00:36.989Z,62.25
2018-11-28T06:03:07.267Z,60.35
2018-11-28T06:05:36.249Z,61.10
2018-11-28T06:08:05.310Z,64.47
2018-11-28T06:10:34.227Z,62.25
2018-11-28T06:13:03.193Z,65.13
2018-11-28T06:15:32.199Z,60.65
2018-11-28T06:18:01.149Z,65.10
2018-11-28T06:20:30.100Z,64.47
2018-11-28T06:22:59.048Z,59.95
2018-11-28T06:25:27.967Z,61.63
2018-11-28T06:27:56.891Z,99.20
2018-11-28T06:30:26.079Z,58.73
2018-11-28T06:32:55.019Z,63.53
2018-11-28T06:35:23.947Z,65.75
2018-11-28T06:37:52.909Z,67.37
2018-11-28T06:40:24.255Z,63.48
2018-11-28T06:42:50.762Z,65.37
2018-11-28T06:45:21.034Z,64.97
2018-11-28T06:47:49.960Z,65.30
2018-11-28T06:50:19.580Z,60.90
2018-11-28T06:52:49.615Z,65.50
2018-11-28T06:55:19.605Z,65.70
2018-11-28T06:57:48.535Z,62.00
2018-11-28T07:00:18.456Z,60.65
2018-11-28T07:02:48.042Z,59.03
2018-11-28T07:05:16.921Z,58.60
2018-11-28T07:07:45.866Z,58.20
2018-11-28T07:10:17.584Z,58.20
2018-11-28T07:12:46.524Z,56.50
2018-11-28T07:15:17.283Z,55.28
2018-11-28T07:17:46.223Z,55.80
2018-11-28T07:20:15.876Z,57.77
2018-11-28T07:22:44.801Z,57.15
2018-11-28T07:25:14.789Z,57.78
2018-11-28T07:27:45.425Z,59.00
2018-11-28T07:30:14.004Z,58.30
2018-11-28T07:32:43.014Z,61.50
2018-11-28T07:35:12.613Z,54.70
2018-11-28T07:37:41.552Z,55.50
2018-11-28T07:40:13.872Z,57.25
2018-11-28T07:42:44.511Z,57.60
2018-11-28T07:45:13.586Z,55.25
2018-11-28T07:47:42.464Z,53.77
2018-11-28T07:50:11.467Z,55.23
2018-11-28T07:52:40.380Z,55.23
2018-11-28T07:55:11.449Z,59.60
2018-11-28T07:57:40.612Z,61.07
2018-11-28T08:00:12.885Z,55.10
2018-11-28T08:02:42.116Z,56.00
2018-11-28T08:05:11.695Z,58.30
2018-11-28T08:07:40.644Z,60.25
2018-11-28T08:10:15.992Z,59.45
2018-11-28T08:12:44.912Z,52.90
2018-11-28T08:15:13.875Z,57.20
2018-11-28T08:17:43.403Z,56.15
2018-11-28T08:20:12.331Z,54.88
2018-11-28T08:22:41.259Z,56.20
2018-11-28T08:25:15.299Z,55.92
2018-11-28T08:27:46.329Z,51.25
2018-11-28T08:30:23.089Z,54.33
2018-11-28T08:32:52.308Z,53.03
2018-11-28T08:35:21.284Z,53.77
2018-11-28T08:37:50.213Z,53.13
2018-11-28T08:40:20.436Z,51.35
2018-11-28T08:42:49.403Z,51.55
2018-11-28T08:45:19.249Z,53.05
2018-11-28T08:47:49.244Z,52.08
2018-11-28T08:50:23.211Z,52.17
2018-11-28T08:52:52.151Z,57.40
2018-11-28T08:55:21.066Z,59.83
2018-11-28T08:57:50.008Z,57.53
2018-11-28T09:00:20.867Z,58.42
2018-11-28T09:02:51.080Z,48.10
2018-11-28T09:05:20.176Z,44.08
2018-11-28T09:07:50.130Z,52.27
2018-11-28T09:10:19.866Z,52.58
2018-11-28T09:12:49.372Z,53.80
2018-11-28T09:15:22.456Z,47.83
2018-11-28T09:17:51.477Z,52.43
2018-11-28T09:20:20.341Z,46.00
2018-11-28T09:22:49.344Z,49.30
2018-11-28T09:25:19.882Z,47.20
2018-11-28T09:27:50.733Z,46.50
2018-11-28T09:30:20.195Z,49.37
2018-11-28T09:32:49.952Z,44.00
2018-11-28T09:35:19.316Z,39.30
2018-11-28T09:37:48.267Z,40.48
2018-11-28T09:40:24.243Z,43.48
2018-11-28T09:42:54.305Z,40.07
2018-11-28T09:45:23.240Z,38.20
2018-11-28T09:47:52.180Z,38.60
2018-11-28T09:50:22.048Z,35.30
2018-11-28T09:52:50.996Z,35.90
2018-11-28T09:55:28.441Z,37.53
2018-11-28T09:57:58.061Z,41.77
2018-11-28T10:00:27.872Z,36.07
2018-11-28T10:03:00.713Z,39.42
2018-11-28T10:05:30.652Z,38.23
2018-11-28T10:07:59.666Z,44.70
2018-11-28T10:10:28.680Z,36.33
2018-11-28T10:12:57.630Z,38.70
2018-11-28T10:15:27.540Z,38.63
2018-11-28T10:20:54.432Z,37.03
2018-11-28T10:23:23.357Z,38.50
2018-11-28T10:25:52.283Z,40.23
2018-11-28T10:28:21.243Z,35.88
2018-11-28T10:30:50.163Z,40.08
2018-11-28T10:33:19.103Z,41.63
2018-11-28T10:35:48.208Z,38.67
2018-11-28T10:38:17.159Z,39.80
2018-11-28T10:40:46.071Z,37.90
2018-11-28T10:43:15.027Z,36.60
2018-11-28T10:45:43.952Z,41.43
2018-11-28T10:48:12.928Z,39.20
2018-11-28T10:50:41.862Z,36.13
2018-11-28T10:53:10.809Z,42.80
2018-11-28T10:55:39.745Z,37.93
2018-11-28T10:58:09.226Z,44.65
2018-11-28T11:00:43.503Z,42.08
2018-11-28T11:03:18.671Z,38.58
2018-11-28T11:05:53.022Z,40.60
2018-11-28T11:08:24.784Z,37.30
2018-11-28T11:10:59.028Z,41.03
2018-11-28T11:13:34.003Z,36.42
2018-11-28T11:16:02.952Z,35.63
2018-11-28T11:18:31.895Z,43.33
2018-11-28T11:21:00.819Z,46.23
2018-11-28T11:23:29.770Z,43.50
2018-11-28T11:25:58.690Z,40.93
2018-11-28T11:28:27.632Z,40.23
2018-11-28T11:30:56.552Z,39.90
2018-11-28T11:33:25.472Z,39.67
2018-11-28T11:38:51.011Z,38.60
2018-11-28T11:41:19.911Z,40.88
2018-11-28T11:43:48.861Z,41.50
2018-11-28T11:46:17.755Z,41.30
2018-11-28T11:48:46.666Z,39.40
2018-11-28T11:51:15.579Z,41.53
2018-11-28T11:53:44.483Z,40.73
2018-11-28T11:56:13.428Z,41.88
2018-11-28T11:58:42.360Z,37.00
2018-11-28T12:01:11.302Z,36.77
2018-11-28T12:03:40.223Z,38.17
2018-11-28T12:06:09.142Z,39.53
2018-11-28T12:08:38.047Z,38.38
2018-11-28T12:11:07.024Z,40.73
2018-11-28T12:13:35.930Z,40.70
2018-11-28T12:16:04.963Z,43.27
2018-11-28T12:18:33.893Z,41.33
2018-11-28T12:21:04.688Z,38.60
2018-11-28T12:23:33.603Z,41.80
2018-11-28T12:26:02.600Z,36.10
2018-11-28T12:28:31.535Z,38.23
2018-11-28T12:31:01.296Z,40.83
2018-11-28T12:33:30.212Z,39.93
2018-11-28T12:35:59.148Z,39.73
2018-11-28T12:38:28.088Z,38.53
2018-11-28T12:40:57.327Z,36.90
2018-11-28T12:43:26.235Z,35.40
2018-11-28T12:45:55.166Z,37.60
2018-11-28T12:48:24.101Z,37.63
2018-11-28T12:50:53.025Z,36.43
2018-11-28T12:53:21.936Z,35.73
2018-11-28T12:55:50.881Z,33.23
2018-11-28T12:58:20.757Z,34.73
2018-11-28T13:00:49.733Z,32.28
2018-11-28T13:03:19.254Z,32.07
2018-11-28T13:05:48.240Z,33.60
2018-11-28T13:08:17.166Z,34.70
2018-11-28T13:10:46.088Z,35.90
2018-11-28T13:13:15.058Z,36.05
2018-11-28T13:15:43.996Z,37.05
2018-11-28T13:18:12.926Z,36.13
2018-11-28T13:20:42.617Z,33.87
2018-11-28T13:23:13.771Z,38.43
2018-11-28T13:25:42.688Z,33.67
2018-11-28T13:28:11.660Z,35.00
2018-11-28T13:30:40.731Z,35.73
2018-11-28T13:33:09.724Z,36.08
2018-11-28T13:35:38.662Z,38.88
2018-11-28T13:38:10.557Z,42.53
2018-11-28T13:40:39.599Z,43.23
2018-11-28T13:43:08.556Z,40.60
2018-11-28T13:45:39.378Z,38.83
2018-11-28T13:48:09.427Z,36.33
2018-11-28T13:50:38.624Z,40.67
2018-11-28T13:53:13.678Z,41.93
2018-11-28T13:55:54.630Z,41.37
2018-11-28T13:58:14.642Z,41.53
2018-11-28T14:00:43.689Z,43.97
2018-11-28T14:03:12.645Z,44.80
2018-11-28T14:05:41.579Z,47.67
2018-11-28T14:08:10.509Z,46.25
2018-11-28T14:10:39.423Z,48.10
2018-11-28T14:13:08.383Z,47.60
2018-11-28T14:15:37.307Z,48.70
2018-11-28T14:18:10.967Z,45.57
2018-11-28T14:20:39.877Z,45.80
2018-11-28T14:23:08.975Z,46.10
2018-11-28T14:25:38.063Z,51.23
2018-11-28T14:28:07.395Z,55.30
2018-11-28T14:30:37.158Z,52.10
2018-11-28T14:33:06.058Z,46.97
2018-11-28T14:35:34.976Z,42.40
2018-11-28T14:38:03.874Z,46.95
2018-11-28T14:40:33.155Z,46.98
2018-11-28T14:43:02.156Z,48.67
2018-11-28T14:45:31.687Z,52.15
2018-11-28T14:48:00.608Z,49.25
2018-11-28T14:50:29.949Z,49.30
2018-11-28T14:52:59.975Z,51.80
2018-11-28T14:55:35.219Z,52.08
2018-11-28T14:58:04.152Z,48.83
2018-11-28T15:00:33.381Z,47.53
2018-11-28T15:03:10.792Z,48.93
2018-11-28T15:06:18.395Z,48.58
2018-11-28T15:08:47.343Z,48.30
2018-11-28T15:11:17.263Z,49.70
2018-11-28T15:13:46.193Z,48.50
2018-11-28T15:16:15.171Z,48.57
2018-11-28T15:18:44.157Z,46.13
2018-11-28T15:21:13.058Z,48.78
2018-11-28T15:23:42.019Z,45.40
2018-11-28T15:26:10.955Z,46.10
2018-11-28T15:28:40.552Z,50.03
2018-11-28T15:31:08.794Z,43.80
2018-11-28T15:33:37.736Z,44.57
2018-11-28T15:36:06.667Z,46.40
2018-11-28T15:38:35.602Z,49.40
2018-11-28T15:41:04.538Z,48.68
2018-11-28T15:43:33.456Z,43.08
2018-11-28T15:46:02.464Z,38.97
2018-11-28T15:48:31.383Z,44.60
2018-11-28T15:51:00.859Z,42.48
2018-11-28T15:53:29.786Z,39.73
2018-11-28T15:55:58.724Z,42.07
2018-11-28T15:58:27.655Z,42.83
2018-11-28T16:00:56.606Z,40.83
2018-11-28T16:03:25.502Z,42.17
2018-11-28T16:05:54.506Z,50.15
2018-11-28T16:08:23.425Z,43.63
2018-11-28T16:10:52.524Z,49.42
2018-11-28T16:13:21.472Z,50.13
2018-11-28T16:15:54.694Z,41.83
2018-11-28T16:18:24.634Z,41.85
2018-11-28T16:20:53.618Z,39.70
2018-11-28T16:23:22.652Z,42.45
2018-11-28T16:25:51.572Z,40.50
2018-11-28T16:28:20.520Z,37.23
2018-11-28T16:30:49.475Z,37.47
2018-11-28T16:33:18.402Z,40.07
2018-11-28T16:35:47.338Z,35.70
2018-11-28T16:38:16.303Z,39.73
2018-11-28T16:40:45.348Z,43.33
2018-11-28T16:43:14.242Z,36.17
2018-11-28T16:45:43.175Z,37.70
2018-11-28T16:48:12.095Z,47.38
2018-11-28T16:50:41.002Z,40.53
2018-11-28T16:53:09.944Z,40.20
2018-11-28T16:55:38.867Z,36.30
2018-11-28T16:58:08.373Z,40.78
2018-11-28T17:00:39.463Z,42.80
2018-11-28T17:03:08.389Z,38.73
2018-11-28T17:05:37.438Z,40.47
2018-11-28T17:08:08.096Z,36.13
2018-11-28T17:10:37.023Z,37.25
2018-11-28T17:13:06.728Z,44.40
2018-11-28T17:15:35.663Z,45.20
2018-11-28T17:18:04.666Z,41.67
2018-11-28T17:20:33.640Z,43.40
2018-11-28T17:23:02.566Z,42.75
2018-11-28T17:25:32.274Z,41.23
2018-11-28T17:28:01.199Z,39.73
2018-11-28T17:30:30.622Z,37.10
2018-11-28T17:32:59.632Z,41.37
2018-11-28T17:35:28.615Z,50.52
2018-11-28T17:37:57.606Z,38.33
2018-11-28T17:40:27.644Z,38.10
2018-11-28T17:42:57.678Z,38.50
2018-11-28T17:45:27.163Z,38.03
2018-11-28T17:47:56.102Z,40.12
2018-11-28T17:50:25.955Z,46.93
2018-11-28T17:52:56.620Z,39.67
2018-11-28T17:55:26.608Z,120.20
2018-11-28T17:57:55.543Z,87.05
2018-11-28T18:00:24.456Z,42.87
2018-11-28T18:02:53.474Z,38.58
2018-11-28T18:05:22.451Z,44.63
2018-11-28T18:07:51.403Z,43.17
2018-11-28T18:10:21.372Z,40.65
2018-11-28T18:13:06.162Z,45.88
2018-11-28T18:15:35.107Z,48.67
2018-11-28T18:18:04.275Z,40.50
2018-11-28T18:20:33.227Z,38.00
2018-11-28T18:23:02.140Z,38.30
2018-11-28T18:25:31.831Z,37.43
2018-11-28T18:28:00.762Z,42.73
2018-11-28T18:30:29.707Z,42.13
2018-11-28T18:32:59.052Z,39.75
2018-11-28T18:35:28.083Z,39.10
2018-11-28T18:37:57.010Z,38.00
2018-11-28T18:40:25.987Z,36.75
2018-11-28T18:42:55.730Z,43.90
2018-11-28T18:45:26.212Z,44.30
2018-11-28T18:47:55.135Z,40.40
2018-11-28T18:50:24.068Z,36.27
2018-11-28T18:52:52.990Z,36.95
2018-11-28T18:55:22.210Z,39.20
2018-11-28T18:57:52.600Z,40.70
2018-11-28T19:00:22.707Z,41.17
2018-11-28T19:02:52.135Z,38.50
2018-11-28T19:05:21.140Z,39.43
2018-11-28T19:07:50.103Z,41.45
2018-11-28T19:10:26.349Z,38.33
2018-11-28T19:12:52.715Z,37.17
2018-11-28T19:15:24.773Z,42.48
2018-11-28T19:17:54.338Z,37.27
2018-11-28T19:20:23.653Z,37.27
2018-11-28T19:22:53.623Z,40.00
2018-11-28T19:25:23.594Z,39.30
2018-11-28T19:27:52.943Z,40.67
2018-11-28T19:30:31.132Z,37.67
2018-11-28T19:32:58.581Z,43.05
2018-11-28T19:35:27.473Z,59.42
2018-11-28T19:37:56.424Z,42.67
2018-11-28T19:40:32.163Z,44.38
2018-11-28T19:43:01.074Z,37.90
2018-11-28T19:45:31.105Z,42.90
2018-11-28T19:48:00.885Z,40.63
2018-11-28T19:50:34.829Z,34.17
2018-11-28T19:53:03.806Z,43.33
2018-11-28T19:55:32.739Z,40.33
2018-11-28T19:58:01.683Z,39.35
2018-11-28T20:00:30.644Z,36.53
2018-11-28T20:02:59.639Z,37.93
2018-11-28T20:05:28.590Z,37.95
2018-11-28T20:07:57.532Z,39.57
2018-11-28T20:10:26.529Z,39.67
2018-11-28T20:12:55.450Z,37.80
2018-11-28T20:15:26.896Z,41.33
2018-11-28T20:17:56.007Z,40.60
2018-11-28T20:20:24.937Z,38.23
2018-11-28T20:22:53.850Z,43.08
2018-11-28T20:25:23.872Z,40.40
2018-11-28T20:27:58.886Z,43.00
2018-11-28T20:30:34.261Z,39.85
2018-11-28T20:33:03.199Z,42.37
2018-11-28T20:35:32.224Z,38.55
2018-11-28T20:38:01.143Z,44.05
2018-11-28T20:40:30.078Z,46.00
2018-11-28T20:42:59.075Z,41.90
2018-11-28T20:45:27.991Z,41.00
2018-11-28T20:47:57.143Z,41.85
2018-11-28T20:50:28.579Z,42.00
2018-11-28T20:53:04.583Z,40.00
2018-11-28T20:55:33.555Z,42.17
2018-11-28T20:58:02.479Z,41.02
2018-11-28T21:00:31.529Z,45.30
2018-11-28T21:03:00.324Z,41.40
2018-11-28T21:05:29.243Z,45.10
2018-11-28T21:07:58.171Z,44.13
2018-11-28T21:10:33.350Z,43.23
2018-11-28T21:13:01.540Z,40.47
2018-11-28T21:15:30.302Z,43.65
2018-11-28T21:17:59.213Z,40.40
2018-11-28T21:20:28.194Z,42.98
2018-11-28T21:22:58.539Z,46.87
2018-11-28T21:25:27.486Z,44.73
2018-11-28T21:27:56.406Z,43.50
2018-11-28T21:30:25.443Z,45.87
2018-11-28T21:32:55.007Z,44.70
2018-11-28T21:35:33.118Z,47.60
2018-11-28T21:38:02.044Z,43.90
2018-11-28T21:40:30.983Z,48.02
2018-11-28T21:42:59.915Z,48.73
2018-11-28T21:45:28.843Z,46.10
2018-11-28T21:47:57.763Z,46.37
2018-11-28T21:50:26.754Z,46.28
2018-11-28T21:52:55.667Z,47.55
2018-11-28T21:55:25.007Z,45.60
2018-11-28T21:57:53.963Z,47.40
2018-11-28T22:00:26.810Z,45.83
2018-11-28T22:02:55.734Z,43.53
2018-11-28T22:05:25.149Z,47.57
2018-11-28T22:07:54.115Z,47.33
2018-11-28T22:10:24.112Z,45.30
2018-11-28T22:12:54.293Z,41.90
2018-11-28T22:15:23.267Z,42.73
2018-11-28T22:17:57.035Z,48.73
2018-11-28T22:20:26.631Z,42.20
2018-11-28T22:22:55.632Z,44.20
2018-11-28T22:25:25.540Z,45.50
2018-11-28T22:27:54.692Z,46.70
2018-11-28T22:30:25.475Z,45.73
2018-11-28T22:32:54.402Z,46.40
2018-11-28T22:35:23.359Z,46.70
2018-11-28T22:37:53.344Z,44.50
2018-11-28T22:40:30.119Z,42.78
2018-11-28T22:42:59.129Z,45.40
2018-11-28T22:45:30.379Z,42.58
2018-11-28T22:47:59.315Z,45.80
2018-11-28T22:50:28.210Z,41.83
2018-11-28T22:52:57.130Z,49.30
2018-11-28T22:55:26.519Z,42.13
2018-11-28T22:57:55.396Z,45.80
2018-11-28T23:00:31.191Z,43.92
2018-11-28T23:03:07.424Z,41.92
2018-11-28T23:05:39.501Z,43.25
2018-11-28T23:08:09.428Z,43.20
2018-11-28T23:10:38.922Z,41.80
2018-11-28T23:13:08.760Z,44.73
2018-11-28T23:15:37.719Z,43.10
2018-11-28T23:18:07.574Z,41.75
2018-11-28T23:20:36.582Z,43.17
2018-11-28T23:23:06.471Z,45.15
2018-11-28T23:25:35.397Z,44.15
2018-11-28T23:28:04.299Z,48.58
2018-11-28T23:30:33.206Z,46.48
2018-11-28T23:33:02.499Z,45.08
2018-11-28T23:35:31.664Z,46.65
2018-11-28T23:38:00.572Z,43.60
2018-11-28T23:40:29.514Z,45.28
2018-11-28T23:42:58.406Z,42.63
2018-11-28T23:45:27.466Z,49.23
2018-11-28T23:47:56.347Z,48.20
2018-11-28T23:50:25.937Z,43.48
2018-11-28T23:52:55.717Z,47.25
2018-11-28T23:55:25.607Z,44.25
2018-11-28T23:57:54.694Z,43.58
